Time;durP1;ratioP1;P1;durP2;ratioP2;P2;SDS_P1;SDS_P2;PMS_P1;PMS_P2;Temp;Humidity;BMP_temperature;BMP_pressure;BME280_temperature;BME280_humidity;BME280_pressure;Samples;Min_cycle;Max_cycle;Signal;HPM_P1;HPM_P2
2023/07/04 00:00:23;;;;;;;4.18;1.95;;;;;;;15.11;100.00;98605.94;5075590;28;20069;-70
2023/07/04 00:02:50;;;;;;;3.67;1.80;;;;;;;15.01;100.00;98604.88;5074281;28;20081;-71
2023/07/04 00:05:15;;;;;;;5.38;1.95;;;;;;;14.94;100.00;98610.47;5121215;22;20040;-70
2023/07/04 00:07:41;;;;;;;4.50;1.45;;;;;;;14.87;100.00;98607.03;5036549;28;20052;-71
2023/07/04 00:10:07;;;;;;;3.70;1.88;;;;;;;14.93;100.00;98616.16;5043558;28;20032;-71
2023/07/04 00:12:33;;;;;;;5.40;1.60;;;;;;;14.77;100.00;98598.59;5041647;28;20551;-71
2023/07/04 00:14:58;;;;;;;4.65;1.90;;;;;;;14.78;100.00;98606.56;5052262;28;20095;-71
2023/07/04 00:17:24;;;;;;;4.85;1.65;;;;;;;14.82;100.00;98612.34;5041764;28;20407;-71
2023/07/04 00:19:51;;;;;;;3.40;1.70;;;;;;;14.95;100.00;98611.28;5039780;28;20036;-71
2023/07/04 00:22:16;;;;;;;2.75;1.58;;;;;;;14.81;100.00;98607.97;5042405;28;20083;-70
2023/07/04 00:24:41;;;;;;;4.22;1.98;;;;;;;14.58;100.00;98582.38;5050342;28;20446;-71
2023/07/04 00:27:07;;;;;;;6.18;1.77;;;;;;;14.79;100.00;98613.66;5049769;28;20478;-71
2023/07/04 00:29:32;;;;;;;4.22;1.70;;;;;;;14.58;100.00;98585.09;5047810;28;20029;-70
2023/07/04 00:31:58;;;;;;;5.47;2.08;;;;;;;14.52;100.00;98580.56;5049888;28;20466;-70
2023/07/04 00:34:24;;;;;;;5.93;1.52;;;;;;;14.76;100.00;98613.31;5051046;28;20025;-70
2023/07/04 00:36:50;;;;;;;6.45;2.22;;;;;;;14.76;100.00;98607.84;5050027;28;20371;-71
2023/07/04 00:39:16;;;;;;;5.85;1.95;;;;;;;14.79;100.00;98607.38;5051047;28;20029;-71
2023/07/04 00:41:41;;;;;;;4.20;1.67;;;;;;;14.71;100.00;98596.84;5050372;28;20367;-71
2023/07/04 00:44:19;;;;;;;4.65;1.98;;;;;;;14.84;100.00;98621.94;5050495;28;20417;-70
2023/07/04 00:47:07;;;;;;;3.88;1.75;;;;;;;14.80;100.00;98625.38;5036747;28;20033;-71
2023/07/04 00:49:44;;;;;;;5.15;2.13;;;;;;;14.79;100.00;98629.16;5048999;28;20020;-71
2023/07/04 00:52:17;;;;;;;2.95;1.50;;;;;;;14.73;100.00;98619.22;5051595;28;20028;-72
2023/07/04 00:54:52;;;;;;;5.20;1.52;;;;;;;14.64;100.00;98614.09;5054621;28;20069;-71
2023/07/04 00:57:19;;;;;;;4.57;1.65;;;;;;;14.62;100.00;98618.16;5048891;28;20078;-71
2023/07/04 00:59:52;;;;;;;4.63;1.70;;;;;;;14.67;100.00;98629.13;5051552;28;20025;-71
2023/07/04 01:02:21;;;;;;;3.33;1.75;;;;;;;14.61;100.00;98622.72;5044668;28;20099;-71
2023/07/04 01:04:48;;;;;;;;;;;;;;;14.59;100.00;98618.59;5045643;28;20557;-71
2023/07/04 01:07:35;;;;;;;6.63;1.95;;;;;;;14.76;100.00;98629.66;5051611;28;19916;-70
2023/07/04 01:10:16;;;;;;;6.25;1.52;;;;;;;14.76;100.00;98613.31;5035681;28;20055;-71
2023/07/04 01:12:42;;;;;;;2.47;1.30;;;;;;;14.79;100.00;98626.44;5047026;28;20025;-71
2023/07/04 01:15:08;;;;;;;4.20;1.33;;;;;;;14.84;100.00;98626.56;5047067;28;20048;-70
2023/07/04 01:17:35;;;;;;;5.15;1.75;;;;;;;14.90;100.00;98636.50;5050958;28;20078;-70
2023/07/04 01:20:02;;;;;;;3.55;1.40;;;;;;;14.84;100.00;98619.22;5050379;28;20494;-72
2023/07/04 01:22:40;;;;;;;5.45;2.08;;;;;;;14.91;100.00;98630.03;5066645;28;20053;-71
2023/07/04 01:25:12;;;;;;;3.67;1.70;;;;;;;14.89;100.00;98622.06;5050816;28;20077;-71
2023/07/04 01:27:38;;;;;;;4.07;1.70;;;;;;;14.97;100.00;98623.63;5067206;28;20025;-70
2023/07/04 01:30:06;;;;;;;5.60;1.58;;;;;;;15.00;100.00;98617.69;5050257;28;20059;-72
2023/07/04 01:32:34;;;;;;;5.90;1.63;;;;;;;15.07;100.00;98617.59;5046731;28;20029;-70
2023/07/04 01:35:00;;;;;;;3.60;1.67;;;;;;;15.18;100.00;98644.00;5047251;28;20275;-71
2023/07/04 01:37:30;;;;;;;3.83;1.67;;;;;;;15.21;100.00;98624.44;5048332;28;20094;-71
2023/07/04 01:40:00;;;;;;;3.35;1.98;;;;;;;15.34;100.00;98631.53;5053007;28;20033;-71
2023/07/04 01:42:31;;;;;;;3.47;1.60;;;;;;;15.21;100.00;98616.25;5049934;28;20020;-71
2023/07/04 01:44:58;;;;;;;3.20;1.70;;;;;;;15.37;100.00;98631.06;5049843;28;20026;-71
2023/07/04 01:47:23;;;;;;;4.97;1.70;;;;;;;15.24;100.00;98593.97;5038769;28;20033;-71
2023/07/04 01:49:49;;;;;;;2.15;1.35;;;;;;;15.41;100.00;98617.81;5054392;28;20021;-72
2023/07/04 01:52:14;;;;;;;3.08;1.67;;;;;;;15.44;100.00;98615.41;5053359;28;20028;-71
2023/07/04 01:54:39;;;;;;;5.95;1.70;;;;;;;15.56;100.00;98613.50;5054687;28;20043;-71
2023/07/04 01:57:10;;;;;;;4.95;1.58;;;;;;;15.48;100.00;98605.69;5054661;28;20064;-70
2023/07/04 01:59:35;;;;;;;4.43;2.00;;;;;;;15.56;100.00;98605.31;5053772;28;20032;-70
2023/07/04 02:02:01;;;;;;;5.63;1.75;;;;;;;15.66;100.00;98617.50;5061820;28;20025;-70
2023/07/04 02:04:26;;;;;;;6.68;1.80;;;;;;;15.60;100.00;98600.22;5051674;28;20036;-71
2023/07/04 02:06:52;;;;;;;5.35;1.45;;;;;;;15.67;100.00;98619.19;5050203;28;20021;-71
2023/07/04 02:09:17;;;;;;;4.32;1.55;;;;;;;15.56;100.00;98605.31;5049501;28;20028;-72
2023/07/04 02:11:42;;;;;;;4.18;1.38;;;;;;;15.60;100.00;98616.56;5054574;28;20100;-71
2023/07/04 02:14:07;;;;;;;7.53;1.65;;;;;;;15.65;100.00;98633.03;5052424;28;20017;-72
2023/07/04 02:16:33;;;;;;;3.67;1.80;;;;;;;15.53;100.00;98613.97;5067816;28;20025;-72
2023/07/04 02:18:58;;;;;;;4.10;1.65;;;;;;;15.40;100.00;98597.03;5051063;28;20079;-72
2023/07/04 02:21:24;;;;;;;5.57;1.33;;;;;;;15.47;100.00;98606.75;5042608;28;20025;-71
2023/07/04 02:23:50;;;;;;;5.32;1.60;;;;;;;15.36;100.00;98596.69;5054592;28;20083;-72
2023/07/04 02:26:15;;;;;;;4.57;1.80;;;;;;;15.53;100.00;98622.13;5054523;28;20020;-71
2023/07/04 02:28:40;;;;;;;6.63;1.52;;;;;;;15.44;100.00;98612.69;5054305;28;20115;-72
2023/07/04 02:31:06;;;;;;;2.75;1.65;;;;;;;15.42;100.00;98609.38;5044745;28;20025;-71
2023/07/04 02:33:32;;;;;;;3.70;1.60;;;;;;;15.39;100.00;98595.41;5051531;28;20233;-72
2023/07/04 02:35:57;;;;;;;5.68;1.50;;;;;;;15.47;100.00;98608.66;5069190;28;20137;-72
2023/07/04 02:38:22;;;;;;;3.60;1.58;;;;;;;15.54;100.00;98625.72;5054127;28;20028;-72
2023/07/04 02:40:51;;;;;;;3.92;1.70;;;;;;;15.48;100.00;98629.38;5069718;28;20371;-72
2023/07/04 02:43:17;;;;;;;2.40;1.50;;;;;;;15.43;100.00;98638.31;5033389;28;20025;-72
2023/07/04 02:45:44;;;;;;;2.88;1.42;;;;;;;15.38;100.00;98620.97;5044848;28;20841;-72
2023/07/04 02:48:10;;;;;;;4.15;1.50;;;;;;;15.31;100.00;98619.22;5066203;28;20124;-71
2023/07/04 02:50:35;;;;;;;5.35;2.00;;;;;;;15.39;100.00;98631.66;5048679;28;20036;-72
2023/07/04 02:53:01;;;;;;;3.90;1.88;;;;;;;15.41;100.00;98628.72;5032874;28;20116;-71
2023/07/04 02:55:26;;;;;;;2.08;1.13;;;;;;;15.32;100.00;98620.88;5042830;28;20496;-71
2023/07/04 02:57:52;;;;;;;4.10;1.77;;;;;;;15.34;100.00;98620.63;5034711;28;20068;-71
2023/07/04 03:00:17;;;;;;;6.40;1.83;;;;;;;15.34;100.00;98626.91;5065960;28;20024;-72
2023/07/04 03:02:43;;;;;;;3.33;1.60;;;;;;;15.36;100.00;98625.88;5048510;28;20486;-73
2023/07/04 03:05:09;;;;;;;5.07;1.73;;;;;;;15.25;100.00;98622.91;5052878;28;20040;-72
2023/07/04 03:07:35;;;;;;;2.35;1.17;;;;;;;15.47;100.00;98644.91;5059933;28;20029;-72
2023/07/04 03:10:00;;;;;;;7.05;1.60;;;;;;;15.38;100.00;98624.56;5049038;28;20116;-73
2023/07/04 03:12:25;;;;;;;2.95;1.50;;;;;;;15.45;100.00;98632.59;5051076;28;20033;-73
2023/07/04 03:14:51;;;;;;;4.15;1.88;;;;;;;15.48;100.00;98641.16;5045118;28;20455;-72
2023/07/04 03:17:16;;;;;;;2.30;1.50;;;;;;;15.53;100.00;98649.41;5050584;28;20549;-72
2023/07/04 03:19:42;;;;;;;4.07;1.42;;;;;;;15.59;100.00;98654.97;5052149;28;20375;-73
2023/07/04 03:22:07;;;;;;;3.58;1.60;;;;;;;15.54;100.00;98659.25;5049506;28;20030;-74
2023/07/04 03:24:33;;;;;;;4.90;1.42;;;;;;;15.48;100.00;98643.03;5048076;28;20540;-73
2023/07/04 03:26:58;;;;;;;3.78;1.65;;;;;;;15.48;100.00;98649.31;5053395;28;20036;-74
2023/07/04 03:29:23;;;;;;;3.67;1.30;;;;;;;15.45;100.00;98638.88;5063864;28;20501;-74
2023/07/04 03:31:49;;;;;;;5.57;1.70;;;;;;;15.49;100.00;98650.16;5050986;28;20496;-74
2023/07/04 03:34:14;;;;;;;5.40;1.50;;;;;;;15.32;100.00;98622.78;5052922;28;20025;-74
2023/07/04 03:36:39;;;;;;;5.80;1.75;;;;;;;15.41;100.00;98650.50;5046280;28;20025;-74
2023/07/04 03:39:05;;;;;;;5.45;1.95;;;;;;;15.36;100.00;98656.69;5050969;28;20028;-74
2023/07/04 03:41:31;;;;;;;4.47;1.88;;;;;;;15.47;100.00;98671.38;5063024;28;20501;-73
2023/07/04 03:43:57;;;;;;;3.22;1.90;;;;;;;15.39;100.00;98658.91;5053721;28;21623;-73
2023/07/04 03:46:22;;;;;;;4.68;1.58;;;;;;;15.31;100.00;98642.94;5068797;28;20410;-74
2023/07/04 03:48:48;;;;;;;5.13;1.90;;;;;;;15.43;100.00;98662.84;5051791;28;20599;-74
2023/07/04 03:51:13;;;;;;;6.90;2.40;;;;;;;15.46;100.00;98656.91;5048166;28;20542;-75
2023/07/04 03:53:38;;;;;;;5.40;1.75;;;;;;;15.57;100.00;98664.22;5054557;28;20099;-74
2023/07/04 03:56:05;;;;;;;5.20;2.00;;;;;;;15.65;100.00;98659.50;5044616;28;20375;-74
2023/07/04 03:58:30;;;;;;;6.53;1.95;;;;;;;15.73;100.00;98662.69;5051977;28;20573;-75
2023/07/04 04:00:55;;;;;;;6.70;1.95;;;;;;;15.74;100.00;98652.59;5051474;28;20032;-73
2023/07/04 04:03:21;;;;;;;6.03;1.80;;;;;;;15.73;100.00;98650.97;5047149;28;20032;-73
2023/07/04 04:05:46;;;;;;;3.05;1.65;;;;;;;15.96;100.00;98655.53;5046738;28;20033;-73
2023/07/04 04:08:12;;;;;;;4.78;2.00;;;;;;;16.07;100.00;98659.28;5048508;28;20031;-72
2023/07/04 04:10:37;;;;;;;2.95;1.58;;;;;;;16.23;100.00;98665.88;5046253;28;20106;-72
2023/07/04 04:13:03;;;;;;;4.22;1.55;;;;;;;16.26;100.00;98659.94;5039829;28;20567;-72
2023/07/04 04:15:29;;;;;;;4.70;1.90;;;;;;;16.14;100.00;98635.44;5048825;28;20040;-72
2023/07/04 04:17:55;;;;;;;2.45;1.52;;;;;;;16.20;100.00;98648.09;5052408;28;20024;-72
2023/07/04 04:20:21;;;;;;;3.63;1.50;;;;;;;16.43;100.00;98667.09;5046818;28;20681;-73
2023/07/04 04:22:47;;;;;;;3.42;1.50;;;;;;;16.53;100.00;98651.97;5051375;28;20025;-75
2023/07/04 04:25:14;;;;;;;10.60;1.98;;;;;;;16.59;100.00;98642.78;5048847;28;20024;-75
2023/07/04 04:27:40;;;;;;;1.90;1.30;;;;;;;16.77;100.00;98661.72;5048533;28;20029;-72
2023/07/04 04:30:08;;;;;;;6.88;1.60;;;;;;;16.80;100.00;98650.28;5047721;28;20017;-72
2023/07/04 04:32:35;;;;;;;2.80;1.70;;;;;;;16.90;100.00;98665.19;5050531;28;20077;-74
2023/07/04 04:35:01;;;;;;;3.75;1.70;;;;;;;16.88;100.00;98650.97;5044994;28;20082;-77
2023/07/04 04:37:27;;;;;;;4.75;1.80;;;;;;;17.01;100.00;98665.13;5053124;28;20028;-80
2023/07/04 04:39:52;;;;;;;3.72;1.60;;;;;;;17.09;100.00;98670.16;5055846;28;20033;-77
2023/07/04 04:42:17;;;;;;;2.03;1.50;;;;;;;17.09;100.00;98667.44;5046219;28;20026;-75
2023/07/04 04:44:43;;;;;;;7.60;1.80;;;;;;;17.21;100.00;98653.69;5047511;28;20037;-73
2023/07/04 04:47:08;;;;;;;5.72;2.15;;;;;;;17.18;100.00;98654.16;5042471;28;20489;-74
2023/07/04 04:49:34;;;;;;;6.35;1.98;;;;;;;17.33;100.00;98672.72;5043563;28;20025;-75
2023/07/04 04:52:00;;;;;;;5.20;1.90;;;;;;;17.36;100.00;98671.41;5047122;28;20025;-73
2023/07/04 04:54:25;;;;;;;4.65;1.80;;;;;;;17.46;100.00;98671.53;5048322;28;20025;-74
2023/07/04 04:56:51;;;;;;;6.00;1.65;;;;;;;17.60;100.00;98670.09;5064094;28;20438;-76
2023/07/04 04:59:16;;;;;;;5.45;1.70;;;;;;;17.72;100.00;98662.59;5035369;28;20034;-80
2023/07/04 05:01:42;;;;;;;2.95;1.52;;;;;;;17.62;100.00;98650.69;5041581;28;20016;-77
2023/07/04 05:04:07;;;;;;;3.75;1.80;;;;;;;17.89;100.00;98679.03;5068611;28;20033;-77
2023/07/04 05:06:33;;;;;;;5.78;1.70;;;;;;;17.84;100.00;98664.41;5048928;28;20018;-75
2023/07/04 05:08:58;;;;;;;3.15;1.35;;;;;;;17.87;100.00;98663.94;5044463;28;20466;-75
2023/07/04 05:11:24;;;;;;;4.32;1.80;;;;;;;18.10;100.00;98666.41;5049418;28;20033;-75
2023/07/04 05:13:50;;;;;;;4.35;1.85;;;;;;;18.27;100.00;98662.75;5049611;28;20066;-76
2023/07/04 05:16:18;;;;;;;4.20;1.60;;;;;;;18.32;100.00;98677.34;5049133;28;21363;-76
2023/07/04 05:18:46;;;;;;;4.35;2.08;;;;;;;18.33;100.00;98683.63;5051731;28;20029;-75
2023/07/04 05:21:13;;;;;;;5.07;1.70;;;;;;;18.51;100.00;98675.06;5055716;28;20037;-75
2023/07/04 05:23:41;;;;;;;8.20;2.20;;;;;;;18.66;100.00;98676.31;5056686;28;20017;-76
2023/07/04 05:26:12;;;;;;;4.78;1.90;;;;;;;18.86;100.00;98684.75;5053082;28;20021;-76
2023/07/04 05:28:38;;;;;;;5.88;1.95;;;;;;;18.95;100.00;98679.63;5069389;28;20079;-76
2023/07/04 05:31:08;;;;;;;4.38;1.80;;;;;;;19.17;100.00;98687.75;5052552;28;20033;-75
2023/07/04 05:33:34;;;;;;;4.70;1.73;;;;;;;19.53;100.00;98688.84;5052520;28;20091;-74
2023/07/04 05:36:06;;;;;;;5.57;1.80;;;;;;;19.55;100.00;98686.66;5053038;28;20032;-74
2023/07/04 05:38:31;;;;;;;5.53;2.00;;;;;;;19.86;100.00;98668.47;5055900;28;20029;-75
2023/07/04 05:40:57;;;;;;;8.45;1.85;;;;;;;19.84;100.00;98653.38;5056649;28;20020;-74
2023/07/04 05:43:22;;;;;;;5.68;1.80;;;;;;;20.40;100.00;98671.97;5045570;28;20082;-74
2023/07/04 05:45:48;;;;;;;6.35;2.25;;;;;;;20.63;100.00;98663.25;5051762;28;20029;-75
2023/07/04 05:48:14;;;;;;;3.75;1.67;;;;;;;20.56;100.00;98665.44;5050009;28;20055;-75
2023/07/04 05:50:55;;;;;;;4.00;1.77;;;;;;;20.89;100.00;98668.78;5052377;28;20435;-76
2023/07/04 05:53:25;;;;;;;4.53;1.50;;;;;;;21.14;100.00;98655.03;5055948;28;20766;-75
2023/07/04 05:55:51;;;;;;;3.20;1.77;;;;;;;21.20;100.00;98658.59;5056011;28;20071;-76
2023/07/04 05:58:18;;;;;;;4.53;1.50;;;;;;;21.27;100.00;98661.06;5063264;28;20033;-76
2023/07/04 06:00:45;;;;;;;3.95;1.92;;;;;;;21.71;100.00;98676.97;5070991;28;20505;-76
2023/07/04 06:03:11;;;;;;;5.57;1.50;;;;;;;21.61;100.00;98686.94;5054536;28;20033;-74
2023/07/04 06:05:41;;;;;;;2.95;1.40;;;;;;;21.40;100.00;98672.34;5066594;22;20090;-75
2023/07/04 06:08:07;;;;;;;3.42;1.40;;;;;;;21.56;100.00;98667.66;5046919;28;20032;-75
2023/07/04 06:10:32;;;;;;;5.25;1.80;;;;;;;21.47;100.00;98679.50;5048224;28;20021;-76
2023/07/04 06:12:57;;;;;;;2.30;1.30;;;;;;;21.47;100.00;98668.50;5035410;28;20076;-75
2023/07/04 06:15:23;;;;;;;4.93;1.40;;;;;;;21.45;100.00;98683.34;5033908;28;20028;-75
2023/07/04 06:17:57;;;;;;;3.05;1.33;;;;;;;21.71;100.00;98677.81;5041601;28;21846;-81
2023/07/04 06:20:22;;;;;;;3.45;1.20;;;;;;;22.22;100.00;98671.34;5026280;28;20028;-76
2023/07/04 06:22:48;;;;;;;2.47;1.40;;;;;;;22.78;100.00;98668.22;5044247;28;20026;-78
2023/07/04 06:25:14;;;;;;;3.63;1.80;;;;;;;23.00;100.00;98672.50;5046484;28;20029;-77
2023/07/04 06:27:41;;;;;;;3.33;1.40;;;;;;;23.17;100.00;98673.75;5057558;28;20025;-72
2023/07/04 06:30:08;;;;;;;2.45;1.17;;;;;;;22.78;100.00;98675.69;5068854;28;20092;-77
2023/07/04 06:32:34;;;;;;;3.92;1.40;;;;;;;22.80;100.00;98682.56;5055143;28;20324;-76
2023/07/04 06:34:59;;;;;;;2.92;1.17;;;;;;;23.21;100.00;98668.47;5047691;28;20025;-77
2023/07/04 06:37:25;;;;;;;5.30;1.60;;;;;;;23.37;100.00;98678.28;5041635;28;20005;-77
2023/07/04 06:39:50;;;;;;;7.00;1.65;;;;;;;23.18;100.00;98669.03;5039552;28;20030;-78
2023/07/04 06:42:15;;;;;;;2.83;1.30;;;;;;;23.30;100.00;98680.53;5036401;28;20097;-76
2023/07/04 06:44:44;;;;;;;4.55;1.20;;;;;;;23.06;100.00;98680.47;5017369;28;20187;-77
2023/07/04 06:47:10;;;;;;;;;;;;;;;23.70;100.00;98691.47;5013130;28;20071;-72
2023/07/04 06:49:35;;;;;;;3.07;1.40;;;;;;;23.83;100.00;98697.16;5026028;28;20330;-72
2023/07/04 06:52:00;;;;;;;3.05;1.45;;;;;;;24.50;100.00;98688.09;5028197;28;20438;-73
2023/07/04 06:54:25;;;;;;;5.32;1.60;;;;;;;25.53;97.88;98682.59;5025445;28;20025;-72
2023/07/04 06:56:51;;;;;;;4.85;1.42;;;;;;;27.65;78.17;98678.47;5028239;28;20078;-78
2023/07/04 06:59:16;;;;;;;3.72;1.42;;;;;;;29.03;70.92;98687.53;5024422;28;20038;-79
2023/07/04 07:01:42;;;;;;;3.50;1.30;;;;;;;30.67;63.19;98668.59;5023864;28;20139;-77
2023/07/04 07:04:07;;;;;;;3.92;1.38;;;;;;;30.64;61.99;98691.63;5021148;28;20025;-80
2023/07/04 07:06:32;;;;;;;4.70;1.63;;;;;;;29.10;64.74;98689.84;5039156;28;20036;-82
2023/07/04 07:08:58;;;;;;;5.88;1.45;;;;;;;27.90;68.48;98699.25;5034030;28;20076;-81
2023/07/04 07:11:24;;;;;;;4.85;1.52;;;;;;;27.58;70.17;98691.19;5038419;28;20386;-81
2023/07/04 07:13:50;;;;;;;4.50;1.90;;;;;;;26.58;72.02;98689.41;5024451;28;20071;-80
2023/07/04 07:16:21;;;;;;;4.32;1.98;;;;;;;25.82;73.55;98706.44;5015644;28;20496;-78
2023/07/04 07:18:49;;;;;;;2.97;1.25;;;;;;;25.06;80.33;98698.31;5045307;28;20495;-80
2023/07/04 07:21:19;;;;;;;4.03;1.70;;;;;;;25.34;82.05;98712.28;5034826;28;20040;-78
2023/07/04 07:23:45;;;;;;;12.32;2.20;;;;;;;25.68;83.72;98689.81;5033616;28;20030;-79
2023/07/04 07:26:12;;;;;;;2.67;1.25;;;;;;;25.89;81.83;98704.13;5016410;28;20040;-78
2023/07/04 07:28:39;;;;;;;6.93;2.30;;;;;;;26.38;77.19;98702.59;5050951;28;20474;-78
2023/07/04 07:31:13;;;;;;;7.72;1.42;;;;;;;26.35;77.44;98716.22;5017849;28;20242;-79
2023/07/04 07:33:40;;;;;;;3.55;1.33;;;;;;;28.14;71.14;98709.16;5014825;28;20030;-79
2023/07/04 07:36:26;;;;;;;2.97;1.27;;;;;;;29.90;64.82;98712.50;5041056;28;20030;-81
2023/07/04 07:38:54;;;;;;;8.10;1.63;;;;;;;29.69;62.94;98710.44;5019432;28;20025;-81
2023/07/04 07:41:24;;;;;;;5.72;1.50;;;;;;;28.11;65.97;98723.69;5038727;28;20108;-79
2023/07/04 07:43:50;;;;;;;3.65;1.52;;;;;;;28.42;65.89;98718.06;5016773;28;20111;-80
2023/07/04 07:46:17;;;;;;;7.28;1.70;;;;;;;27.94;68.05;98719.69;5010980;28;20399;-79
2023/07/04 07:48:43;;;;;;;3.95;1.55;;;;;;;28.41;67.89;98711.69;5043191;28;20032;-80
2023/07/04 07:51:11;;;;;;;7.68;1.80;;;;;;;28.83;62.71;98694.56;5029574;28;20514;-76
2023/07/04 07:53:38;;;;;;;4.78;1.60;;;;;;;29.56;62.60;98696.69;5044217;28;20033;-76
2023/07/04 07:56:05;;;;;;;6.00;1.90;;;;;;;29.73;59.56;98698.63;5035642;28;20033;-76
2023/07/04 07:58:32;;;;;;;9.82;1.95;;;;;;;29.86;58.21;98695.59;5040831;28;20175;-76
2023/07/04 08:00:58;;;;;;;4.53;1.85;;;;;;;29.71;58.79;98696.16;5026672;28;20030;-76
2023/07/04 08:03:23;;;;;;;4.93;2.10;;;;;;;30.73;58.01;98703.56;5026707;28;20108;-75
2023/07/04 08:05:49;;;;;;;10.32;2.20;;;;;;;31.81;54.96;98696.38;5041654;28;20029;-76
2023/07/04 08:08:14;;;;;;;3.65;1.98;;;;;;;32.73;49.69;98690.22;5037030;28;20035;-76
2023/07/04 08:10:41;;;;;;;6.10;2.35;;;;;;;33.31;48.35;98692.72;5032317;28;20033;-75
2023/07/04 08:13:08;;;;;;;3.65;1.90;;;;;;;34.04;45.55;98694.31;5038856;28;20028;-77
2023/07/04 08:15:33;;;;;;;4.18;2.08;;;;;;;36.03;43.18;98705.84;5011080;28;20064;-75
2023/07/04 08:18:17;;;;;;;5.60;2.17;;;;;;;36.50;40.97;98687.69;5013147;28;20053;-75
2023/07/04 08:20:42;;;;;;;4.25;2.00;;;;;;;33.80;42.89;98686.06;5025228;28;20371;-76
2023/07/04 08:23:07;;;;;;;4.87;1.97;;;;;;;34.69;43.30;98684.66;5027107;28;20570;-75
2023/07/04 08:25:38;;;;;;;7.32;1.83;;;;;;;36.39;39.81;98679.91;5038143;28;20288;-77
2023/07/04 08:28:03;;;;;;;5.00;2.30;;;;;;;35.78;39.52;98694.94;5012753;28;20375;-77
2023/07/04 08:30:28;;;;;;;4.85;1.92;;;;;;;39.06;38.12;98678.63;5023158;28;20033;-76
2023/07/04 08:32:54;;;;;;;4.63;1.80;;;;;;;41.22;35.38;98678.31;5040729;28;20028;-76
2023/07/04 08:35:19;;;;;;;4.17;2.13;;;;;;;39.60;35.36;98674.78;5034477;28;20325;-76
2023/07/04 08:37:44;;;;;;;3.28;1.92;;;;;;;38.43;36.00;98675.81;5026203;28;20718;-77
2023/07/04 08:40:11;;;;;;;2.90;1.83;;;;;;;36.57;37.32;98682.19;5025500;28;20040;-76
2023/07/04 08:42:39;;;;;;;6.45;2.53;;;;;;;35.06;38.16;98682.25;5030150;28;20170;-76
2023/07/04 08:45:09;;;;;;;6.13;2.45;;;;;;;33.72;41.49;98681.41;5030464;28;20032;-75
2023/07/04 08:47:34;;;;;;;12.55;3.15;;;;;;;32.26;41.50;98679.50;5032093;28;20034;-76
2023/07/04 08:50:15;;;;;;;6.38;2.60;;;;;;;32.04;43.46;98685.56;5030762;28;20043;-76
2023/07/04 08:52:52;;;;;;;6.43;2.60;;;;;;;27.43;50.49;98701.56;5027208;28;20029;-76
2023/07/04 08:55:19;;;;;;;5.47;2.22;;;;;;;28.57;52.37;98677.84;5013998;28;20022;-75
2023/07/04 08:58:01;;;;;;;7.07;2.30;;;;;;;31.23;46.32;98687.88;5032147;28;20131;-76
2023/07/04 09:00:35;;;;;;;7.40;2.53;;;;;;;34.93;42.35;98677.94;5031649;28;20114;-75
2023/07/04 09:03:36;;;;;;;7.32;2.17;;;;;;;38.00;37.45;98680.31;5029190;28;20033;-76
2023/07/04 09:06:27;;;;;;;6.07;2.15;;;;;;;37.65;37.06;98681.56;5016255;28;20151;-76
2023/07/04 09:09:20;;;;;;;5.57;1.85;;;;;;;34.54;38.91;98682.69;5032113;28;20500;-76
2023/07/04 09:11:48;;;;;;;7.13;2.67;;;;;;;35.63;39.51;98682.59;5023625;28;20113;-76
2023/07/04 09:14:31;;;;;;;5.88;2.53;;;;;;;33.54;39.86;98678.97;5024280;28;20033;-76
2023/07/04 09:17:01;;;;;;;6.47;3.53;;;;;;;36.34;37.58;98683.06;5020687;28;20033;-75
2023/07/04 09:19:34;;;;;;;6.75;3.78;;;;;;;36.84;35.32;98669.69;5023354;28;20486;-76
2023/07/04 09:22:05;;;;;;;7.97;3.40;;;;;;;34.72;37.69;98683.13;5040425;28;20025;-76
2023/07/04 09:24:30;;;;;;;9.18;3.25;;;;;;;34.29;37.82;98668.03;5026834;28;20029;-76
2023/07/04 09:26:56;;;;;;;11.27;3.47;;;;;;;34.66;38.19;98668.50;5030258;28;20025;-75
2023/07/04 09:29:24;;;;;;;11.63;3.90;;;;;;;34.99;36.96;98672.84;5028540;28;20280;-76
2023/07/04 09:31:56;;;;;;;10.60;3.67;;;;;;;33.23;39.89;98670.47;5026544;28;20048;-76
2023/07/04 09:34:31;;;;;;;9.57;3.75;;;;;;;31.05;42.41;98673.25;5030013;28;20552;-75
2023/07/04 09:36:59;;;;;;;6.50;3.60;;;;;;;30.01;44.70;98673.91;5028602;28;20127;-76
2023/07/04 09:39:47;;;;;;;5.22;3.42;;;;;;;29.52;46.02;98679.78;5027062;28;20383;-76
2023/07/04 09:42:14;;;;;;;8.32;3.45;;;;;;;28.55;47.85;98678.16;5028790;28;20033;-76
2023/07/04 09:44:39;;;;;;;9.02;3.50;;;;;;;27.60;50.39;98675.03;5026500;28;20056;-76
2023/07/04 09:47:07;;;;;;;20.35;4.55;;;;;;;27.39;51.49;98680.28;5029113;28;20376;-76
2023/07/04 09:49:35;;;;;;;16.17;4.80;;;;;;;27.71;51.90;98677.19;5030832;28;20029;-76
2023/07/04 09:52:05;;;;;;;9.25;4.18;;;;;;;27.65;50.46;98675.69;5013775;28;20037;-75
2023/07/04 09:54:36;;;;;;;7.78;3.80;;;;;;;30.58;47.86;98685.44;5039961;28;20032;-75
2023/07/04 09:57:28;;;;;;;7.43;4.05;;;;;;;33.46;42.20;98670.66;5041547;28;20484;-76
2023/07/04 10:00:12;;;;;;;10.50;3.83;;;;;;;35.19;40.41;98679.28;5018490;28;20052;-76
2023/07/04 10:02:38;;;;;;;9.70;3.22;;;;;;;35.76;37.46;98669.16;5032200;28;20021;-77
2023/07/04 10:05:04;;;;;;;8.95;3.15;;;;;;;33.46;40.54;98677.13;5040096;28;20090;-76
2023/07/04 10:07:29;;;;;;;7.53;3.35;;;;;;;30.27;44.58;98680.19;5021317;28;20426;-76
2023/07/04 10:09:58;;;;;;;7.80;3.78;;;;;;;29.47;46.29;98683.59;5020205;28;20580;-76
2023/07/04 10:12:24;;;;;;;;;;;;;;;30.99;46.43;98678.25;5030782;28;20063;-76
2023/07/04 10:14:55;;;;;;;7.32;3.58;;;;;;;32.61;42.20;98665.00;5022151;28;19988;-76
2023/07/04 10:17:30;;;;;;;8.90;3.90;;;;;;;31.71;42.67;98675.25;5018932;28;20033;-76
2023/07/04 10:20:00;;;;;;;8.63;3.42;;;;;;;30.01;44.55;98666.34;5038463;28;20020;-78
2023/07/04 10:22:34;;;;;;;6.97;3.78;;;;;;;31.61;43.66;98668.09;5044807;28;20033;-79
2023/07/04 10:25:01;;;;;;;8.48;3.67;;;;;;;35.32;39.44;98658.28;5023794;28;20025;-79
2023/07/04 10:27:35;;;;;;;8.65;3.47;;;;;;;37.82;35.82;98646.25;5013355;28;20031;-79
2023/07/04 10:30:06;;;;;;;6.20;3.30;;;;;;;39.82;33.44;98660.66;5027806;28;20048;-79
2023/07/04 10:32:39;;;;;;;6.85;3.25;;;;;;;40.07;32.25;98652.19;5043389;28;20029;-78
2023/07/04 10:35:08;;;;;;;8.63;3.55;;;;;;;40.08;32.00;98639.63;5039342;28;20040;-77
2023/07/04 10:37:37;;;;;;;4.88;3.00;;;;;;;39.46;32.20;98646.44;5044449;28;20170;-77
2023/07/04 10:40:08;;;;;;;7.50;3.72;;;;;;;40.10;30.95;98640.03;5029382;28;20025;-76
2023/07/04 10:42:43;;;;;;;9.43;4.30;;;;;;;40.54;29.77;98647.28;5028289;28;20018;-78
2023/07/04 10:45:12;;;;;;;6.40;3.95;;;;;;;41.49;30.16;98632.31;5012680;28;20029;-76
2023/07/04 10:47:39;;;;;;;7.47;3.95;;;;;;;41.09;29.28;98621.19;5023425;28;20119;-75
2023/07/04 10:50:31;;;;;;;10.40;4.10;;;;;;;39.42;31.14;98643.59;5026890;28;20214;-75
2023/07/04 10:52:56;;;;;;;11.68;4.25;;;;;;;37.77;32.48;98638.13;5018719;28;20033;-75
2023/07/04 10:55:29;;;;;;;9.20;3.83;;;;;;;38.05;32.95;98626.28;5034454;28;20029;-74
2023/07/04 10:58:08;;;;;;;7.50;4.70;;;;;;;39.87;30.03;98624.25;5027590;28;20025;-75
2023/07/04 11:00:38;;;;;;;7.72;4.32;;;;;;;39.10;29.25;98622.88;5036492;28;20086;-75
2023/07/04 11:03:10;;;;;;;9.02;4.68;;;;;;;38.98;29.55;98622.00;5033596;28;20029;-74
2023/07/04 11:05:40;;;;;;;8.23;4.18;;;;;;;39.02;30.12;98622.03;5032894;28;20107;-75
2023/07/04 11:08:15;;;;;;;6.53;4.15;;;;;;;36.38;32.07;98607.81;5023586;28;20073;-74
2023/07/04 11:10:43;;;;;;;7.82;4.35;;;;;;;34.52;33.77;98611.97;5030549;28;20391;-74
2023/07/04 11:13:16;;;;;;;9.52;4.65;;;;;;;31.83;36.83;98616.50;5033208;28;20037;-74
2023/07/04 11:15:42;;;;;;;7.30;4.35;;;;;;;30.99;38.86;98622.38;5032932;28;20026;-75
2023/07/04 11:18:17;;;;;;;11.18;4.50;;;;;;;33.95;36.29;98615.06;5032579;28;20036;-74
2023/07/04 11:20:53;;;;;;;9.80;4.95;;;;;;;34.76;33.53;98617.34;5013110;28;20022;-74
2023/07/04 11:23:20;;;;;;;8.43;4.78;;;;;;;34.64;33.91;98628.75;5009057;28;20093;-75
2023/07/04 11:25:46;;;;;;;7.72;4.70;;;;;;;32.70;35.73;98631.28;5021678;28;20101;-75
2023/07/04 11:28:18;;;;;;;9.13;5.10;;;;;;;31.98;36.45;98622.59;5015091;28;20112;-75
2023/07/04 11:30:47;;;;;;;8.88;4.95;;;;;;;30.79;37.03;98623.16;5026064;28;20061;-75
2023/07/04 11:33:34;;;;;;;9.98;5.10;;;;;;;31.91;37.38;98614.75;5012867;28;20033;-74